Milton, Florida
Current Conditions -  °F | °C
As of 2:56 AM on Sunday 23 Nov 2014 (Local Time) from KNDZ Reporting Station
Overcast Overcast  
Wind Chill: 66°   Ceiling: 700
Heat Index: 66°   Visibility: 10mi
Dew Point: 63°   Wind: 13mph
Humidity: 90%   Direction: 110°ESE
Pressure: 29.86"   Gusts: NA
Location:  30.63°N, 87.04°W
Report Text: KNDZ 230856Z AUTO 11011KT 10SM OVC007 19/17 A2986 RMK AO2 RAE0759B21E30 SLP097 P0000 60000 T01890172 56034 $
Loading
Personal Weather Stations






























Interactive Weather Map New forecast layout! Learn more

10-Day Weather Forecast

Advertisements
Track Severe Weather on mobile